Terminal Aerodrome Forecast
Issued by NWS Topeka, KS

Home | Current Version | Previous Version | Graphics & Text | Print | Product List | Glossary On
Versions: 1 2 3 4 5 6 7 8 9 10 11 12 13 14 15 16 17 18 19 20 21 22 23 24 25 26 27 28 29 30
000
FTUS43 KTOP 241500 AAB
TAFTOP
TAF AMD
KTOP 241507Z 2415/2512 08011KT P6SM FEW009 SCT030 OVC045
     FM241700 07010KT 4SM -DZ BR SCT007 BKN013 OVC020
      TEMPO 2420/2422 -TSRA SCT007 BKN011 OVC020CB
     FM250100 19003KT P6SM FEW025 SCT150=

USA.gov is the U.S. government's official web portal to all federal, state and local government web resources and services.